sensor_id;sensor_type;location;lat;lon;timestamp;pressure;altitude;pressure_sealevel;temperature;humidity
16120;BME280;12670;53.502;10.252;2023-11-22T00:02:44;102456.88;;;4.46;100.00
16120;BME280;12670;53.502;10.252;2023-11-22T00:05:48;102453.25;;;4.35;100.00
16120;BME280;12670;53.502;10.252;2023-11-22T00:08:52;102461.81;;;4.19;100.00
16120;BME280;12670;53.502;10.252;2023-11-22T00:11:55;102461.00;;;4.23;100.00
16120;BME280;12670;53.502;10.252;2023-11-22T00:14:58;102457.56;;;4.28;100.00
16120;BME280;12670;53.502;10.252;2023-11-22T00:18:00;102466.25;;;4.23;100.00
16120;BME280;12670;53.502;10.252;2023-11-22T00:21:05;102472.19;;;4.10;100.00
16120;BME280;12670;53.502;10.252;2023-11-22T00:24:09;102471.22;;;4.03;100.00
16120;BME280;12670;53.502;10.252;2023-11-22T00:27:12;102464.28;;;4.05;100.00
16120;BME280;12670;53.502;10.252;2023-11-22T00:30:17;102456.34;;;4.04;100.00
16120;BME280;12670;53.502;10.252;2023-11-22T00:33:19;102459.03;;;4.05;100.00
16120;BME280;12670;53.502;10.252;2023-11-22T00:36:22;102454.56;;;3.99;100.00
16120;BME280;12670;53.502;10.252;2023-11-22T00:39:26;102459.84;;;4.03;100.00
16120;BME280;12670;53.502;10.252;2023-11-22T00:42:29;102450.13;;;3.94;100.00
16120;BME280;12670;53.502;10.252;2023-11-22T00:45:32;102459.59;;;3.81;100.00
16120;BME280;12670;53.502;10.252;2023-11-22T00:48:35;102473.56;;;3.80;100.00
16120;BME280;12670;53.502;10.252;2023-11-22T00:51:37;102490.97;;;3.75;100.00
16120;BME280;12670;53.502;10.252;2023-11-22T00:54:41;102499.72;;;3.74;100.00
16120;BME280;12670;53.502;10.252;2023-11-22T00:57:44;102500.88;;;3.93;100.00
16120;BME280;12670;53.502;10.252;2023-11-22T01:00:47;102519.06;;;3.79;100.00
16120;BME280;12670;53.502;10.252;2023-11-22T01:03:50;102523.59;;;3.89;100.00
16120;BME280;12670;53.502;10.252;2023-11-22T01:06:52;102525.34;;;3.90;100.00
16120;BME280;12670;53.502;10.252;2023-11-22T01:09:56;102533.13;;;3.84;100.00
16120;BME280;12670;53.502;10.252;2023-11-22T01:12:59;102537.41;;;3.78;100.00
16120;BME280;12670;53.502;10.252;2023-11-22T01:16:02;102529.69;;;3.88;100.00
16120;BME280;12670;53.502;10.252;2023-11-22T01:19:05;102527.63;;;3.69;100.00
16120;BME280;12670;53.502;10.252;2023-11-22T01:22:08;102531.91;;;3.61;100.00
16120;BME280;12670;53.502;10.252;2023-11-22T01:25:12;102525.69;;;3.56;100.00
16120;BME280;12670;53.502;10.252;2023-11-22T01:28:15;102522.13;;;3.51;100.00
16120;BME280;12670;53.502;10.252;2023-11-22T01:31:18;102531.06;;;3.63;100.00
16120;BME280;12670;53.502;10.252;2023-11-22T01:34:22;102526.03;;;3.77;100.00
16120;BME280;12670;53.502;10.252;2023-11-22T01:37:25;102520.59;;;3.65;100.00
16120;BME280;12670;53.502;10.252;2023-11-22T01:40:30;102520.53;;;3.62;100.00
16120;BME280;12670;53.502;10.252;2023-11-22T01:43:33;102525.69;;;3.56;100.00
16120;BME280;12670;53.502;10.252;2023-11-22T01:46:35;102525.78;;;3.62;100.00
16120;BME280;12670;53.502;10.252;2023-11-22T01:49:38;102522.00;;;3.43;100.00
16120;BME280;12670;53.502;10.252;2023-11-22T01:52:41;102527.25;;;3.44;100.00
16120;BME280;12670;53.502;10.252;2023-11-22T01:55:46;102537.75;;;3.44;100.00
16120;BME280;12670;53.502;10.252;2023-11-22T01:58:49;102541.13;;;3.36;100.00
16120;BME280;12670;53.502;10.252;2023-11-22T02:01:53;102535.09;;;3.41;100.00
16120;BME280;12670;53.502;10.252;2023-11-22T02:04:56;102528.94;;;3.39;100.00
16120;BME280;12670;53.502;10.252;2023-11-22T02:07:59;102531.44;;;3.33;100.00
16120;BME280;12670;53.502;10.252;2023-11-22T02:11:04;102523.47;;;3.26;100.00
16120;BME280;12670;53.502;10.252;2023-11-22T02:14:07;102525.09;;;3.19;100.00
16120;BME280;12670;53.502;10.252;2023-11-22T02:17:10;102522.50;;;3.22;100.00
16120;BME280;12670;53.502;10.252;2023-11-22T02:20:13;102532.06;;;3.17;100.00
16120;BME280;12670;53.502;10.252;2023-11-22T02:23:18;102537.25;;;3.14;100.00
16120;BME280;12670;53.502;10.252;2023-11-22T02:26:20;102539.84;;;3.11;100.00
16120;BME280;12670;53.502;10.252;2023-11-22T02:29:23;102552.81;;;3.05;100.00
16120;BME280;12670;53.502;10.252;2023-11-22T02:32:26;102555.44;;;3.05;100.00
16120;BME280;12670;53.502;10.252;2023-11-22T02:35:29;102563.47;;;3.12;100.00
16120;BME280;12670;53.502;10.252;2023-11-22T02:38:34;102561.53;;;3.04;100.00
16120;BME280;12670;53.502;10.252;2023-11-22T02:41:37;102578.34;;;3.13;100.00
16120;BME280;12670;53.502;10.252;2023-11-22T02:44:40;102571.16;;;3.05;100.00
16120;BME280;12670;53.502;10.252;2023-11-22T02:47:43;102581.66;;;3.05;100.00
16120;BME280;12670;53.502;10.252;2023-11-22T02:50:47;102591.19;;;3.00;100.00
16120;BME280;12670;53.502;10.252;2023-11-22T02:53:53;102587.53;;;2.91;100.00
16120;BME280;12670;53.502;10.252;2023-11-22T02:56:56;102591.13;;;2.97;100.00
16120;BME280;12670;53.502;10.252;2023-11-22T02:59:58;102598.13;;;2.98;100.00
16120;BME280;12670;53.502;10.252;2023-11-22T03:03:01;102590.78;;;2.78;100.00
16120;BME280;12670;53.502;10.252;2023-11-22T03:06:07;102597.31;;;3.00;100.00
16120;BME280;12670;53.502;10.252;2023-11-22T03:09:11;102605.09;;;2.96;100.00
16120;BME280;12670;53.502;10.252;2023-11-22T03:12:16;102601.84;;;3.09;100.00
16120;BME280;12670;53.502;10.252;2023-11-22T03:15:19;102616.78;;;3.11;100.00
16120;BME280;12670;53.502;10.252;2023-11-22T03:18:22;102618.25;;;2.99;100.00
16120;BME280;12670;53.502;10.252;2023-11-22T03:21:25;102611.31;;;3.01;100.00
16120;BME280;12670;53.502;10.252;2023-11-22T03:24:30;102591.97;;;2.94;100.00
16120;BME280;12670;53.502;10.252;2023-11-22T03:27:35;102604.25;;;2.98;100.00
16120;BME280;12670;53.502;10.252;2023-11-22T03:30:38;102602.34;;;2.88;100.00
16120;BME280;12670;53.502;10.252;2023-11-22T03:33:42;102603.69;;;3.13;100.00
16120;BME280;12670;53.502;10.252;2023-11-22T03:36:44;102600.38;;;3.23;100.00
16120;BME280;12670;53.502;10.252;2023-11-22T03:39:48;102613.72;;;2.88;100.00
16120;BME280;12670;53.502;10.252;2023-11-22T03:42:51;102611.84;;;2.83;100.00
16120;BME280;12670;53.502;10.252;2023-11-22T03:45:53;102625.31;;;3.01;100.00
16120;BME280;12670;53.502;10.252;2023-11-22T03:48:56;102629.50;;;2.93;100.00
16120;BME280;12670;53.502;10.252;2023-11-22T03:51:59;102620.19;;;3.07;100.00
16120;BME280;12670;53.502;10.252;2023-11-22T03:55:03;102627.91;;;3.00;100.00
16120;BME280;12670;53.502;10.252;2023-11-22T03:58:06;102633.41;;;3.12;100.00
16120;BME280;12670;53.502;10.252;2023-11-22T04:01:09;102632.31;;;3.02;100.00
16120;BME280;12670;53.502;10.252;2023-11-22T04:04:12;102630.41;;;2.93;100.00
16120;BME280;12670;53.502;10.252;2023-11-22T04:07:15;102636.69;;;3.02;100.00
16120;BME280;12670;53.502;10.252;2023-11-22T04:10:19;102644.81;;;3.15;100.00
16120;BME280;12670;53.502;10.252;2023-11-22T04:13:22;102644.75;;;3.11;100.00
16120;BME280;12670;53.502;10.252;2023-11-22T04:16:26;102644.69;;;3.09;100.00
16120;BME280;12670;53.502;10.252;2023-11-22T04:19:29;102649.78;;;3.00;100.00
16120;BME280;12670;53.502;10.252;2023-11-22T04:22:32;102649.81;;;3.03;100.00
16120;BME280;12670;53.502;10.252;2023-11-22T04:25:37;102643.66;;;3.00;100.00
16120;BME280;12670;53.502;10.252;2023-11-22T04:28:39;102631.56;;;3.08;100.00
16120;BME280;12670;53.502;10.252;2023-11-22T04:31:42;102641.81;;;2.96;100.00
16120;BME280;12670;53.502;10.252;2023-11-22T04:34:45;102646.69;;;2.77;100.00
16120;BME280;12670;53.502;10.252;2023-11-22T04:37:48;102638.19;;;2.90;100.00
16120;BME280;12670;53.502;10.252;2023-11-22T04:40:52;102637.56;;;3.02;100.00
16120;BME280;12670;53.502;10.252;2023-11-22T04:43:54;102635.94;;;3.09;100.00
16120;BME280;12670;53.502;10.252;2023-11-22T04:46:57;102632.97;;;2.90;100.00
16120;BME280;12670;53.502;10.252;2023-11-22T04:50:01;102632.19;;;2.94;100.00
16120;BME280;12670;53.502;10.252;2023-11-22T04:53:03;102636.13;;;2.74;100.00
16120;BME280;12670;53.502;10.252;2023-11-22T04:56:08;102647.47;;;2.75;100.00
16120;BME280;12670;53.502;10.252;2023-11-22T04:59:10;102635.22;;;2.72;100.00
16120;BME280;12670;53.502;10.252;2023-11-22T05:02:13;102628.97;;;2.67;100.00
16120;BME280;12670;53.502;10.252;2023-11-22T05:05:16;102634.34;;;2.72;100.00
16120;BME280;12670;53.502;10.252;2023-11-22T05:08:19;102625.72;;;2.77;100.00
16120;BME280;12670;53.502;10.252;2023-11-22T05:11:23;102633.47;;;2.73;100.00
16120;BME280;12670;53.502;10.252;2023-11-22T05:14:26;102640.56;;;2.77;100.00
16120;BME280;12670;53.502;10.252;2023-11-22T05:17:29;102642.56;;;2.90;100.00
16120;BME280;12670;53.502;10.252;2023-11-22T05:20:31;102651.97;;;2.80;100.00
16120;BME280;12670;53.502;10.252;2023-11-22T05:23:35;102650.53;;;2.54;100.00
16120;BME280;12670;53.502;10.252;2023-11-22T05:26:40;102653.16;;;2.54;100.00
16120;BME280;12670;53.502;10.252;2023-11-22T05:29:43;102657.66;;;2.59;100.00
16120;BME280;12670;53.502;10.252;2023-11-22T05:32:55;102658.47;;;2.57;100.00
16120;BME280;12670;53.502;10.252;2023-11-22T05:35:58;102667.25;;;2.59;100.00
16120;BME280;12670;53.502;10.252;2023-11-22T05:39:01;102682.22;;;2.64;100.00
16120;BME280;12670;53.502;10.252;2023-11-22T05:42:06;102689.03;;;2.56;100.00
16120;BME280;12670;53.502;10.252;2023-11-22T05:45:09;102690.72;;;2.53;100.00
16120;BME280;12670;53.502;10.252;2023-11-22T05:48:12;102688.59;;;2.38;100.00
16120;BME280;12670;53.502;10.252;2023-11-22T05:51:15;102683.63;;;2.49;100.00
16120;BME280;12670;53.502;10.252;2023-11-22T05:54:18;102677.47;;;2.47;100.00
16120;BME280;12670;53.502;10.252;2023-11-22T05:57:22;102695.19;;;2.58;100.00
16120;BME280;12670;53.502;10.252;2023-11-22T06:00:24;102683.78;;;2.56;100.00
16120;BME280;12670;53.502;10.252;2023-11-22T06:03:27;102677.88;;;2.65;100.00
16120;BME280;12670;53.502;10.252;2023-11-22T06:06:30;102677.13;;;2.71;100.00
16120;BME280;12670;53.502;10.252;2023-11-22T06:09:33;102688.22;;;2.59;100.00
16120;BME280;12670;53.502;10.252;2023-11-22T06:12:38;102693.31;;;2.53;100.00
16120;BME280;12670;53.502;10.252;2023-11-22T06:15:41;102684.38;;;2.43;100.00
16120;BME280;12670;53.502;10.252;2023-11-22T06:18:44;102671.44;;;2.51;100.00
16120;BME280;12670;53.502;10.252;2023-11-22T06:21:46;102671.66;;;2.60;100.00
16120;BME280;12670;53.502;10.252;2023-11-22T06:24:49;102665.06;;;2.39;100.00
16120;BME280;12670;53.502;10.252;2023-11-22T06:27:53;102661.53;;;2.37;100.00
16120;BME280;12670;53.502;10.252;2023-11-22T06:30:59;102668.41;;;2.32;100.00
16120;BME280;12670;53.502;10.252;2023-11-22T06:34:02;102670.28;;;2.39;100.00
16120;BME280;12670;53.502;10.252;2023-11-22T06:37:05;102667.88;;;2.47;100.00
16120;BME280;12670;53.502;10.252;2023-11-22T06:40:11;102648.13;;;2.24;100.00
16120;BME280;12670;53.502;10.252;2023-11-22T06:43:16;102652.03;;;2.41;100.00
16120;BME280;12670;53.502;10.252;2023-11-22T06:46:19;102643.06;;;2.31;100.00
16120;BME280;12670;53.502;10.252;2023-11-22T06:49:21;102650.91;;;2.31;100.00
16120;BME280;12670;53.502;10.252;2023-11-22T06:52:24;102658.13;;;2.42;100.00
16120;BME280;12670;53.502;10.252;2023-11-22T06:55:27;102665.16;;;2.44;100.00
16120;BME280;12670;53.502;10.252;2023-11-22T06:58:31;102663.50;;;2.48;100.00
16120;BME280;12670;53.502;10.252;2023-11-22T07:01:33;102666.44;;;2.61;100.00
16120;BME280;12670;53.502;10.252;2023-11-22T07:04:36;102664.03;;;2.72;100.00
16120;BME280;12670;53.502;10.252;2023-11-22T07:07:41;102655.84;;;2.57;100.00
16120;BME280;12670;53.502;10.252;2023-11-22T07:10:43;102645.84;;;2.39;100.00
16120;BME280;12670;53.502;10.252;2023-11-22T07:13:48;102652.31;;;2.55;100.00
16120;BME280;12670;53.502;10.252;2023-11-22T07:16:51;102660.47;;;2.68;100.00
16120;BME280;12670;53.502;10.252;2023-11-22T07:19:55;102657.84;;;2.68;100.00
16120;BME280;12670;53.502;10.252;2023-11-22T07:22:58;102666.50;;;2.64;100.00
16120;BME280;12670;53.502;10.252;2023-11-22T07:26:01;102672.75;;;2.71;100.00
16120;BME280;12670;53.502;10.252;2023-11-22T07:29:06;102681.41;;;2.67;100.00
16120;BME280;12670;53.502;10.252;2023-11-22T07:32:09;102668.41;;;2.72;100.00
16120;BME280;12670;53.502;10.252;2023-11-22T07:35:12;102662.41;;;2.77;100.00
16120;BME280;12670;53.502;10.252;2023-11-22T07:38:16;102666.94;;;2.86;100.00
16120;BME280;12670;53.502;10.252;2023-11-22T07:41:19;102667.81;;;2.86;100.00
16120;BME280;12670;53.502;10.252;2023-11-22T07:44:24;102678.56;;;2.99;100.00
16120;BME280;12670;53.502;10.252;2023-11-22T07:47:27;102683.75;;;2.96;100.00
16120;BME280;12670;53.502;10.252;2023-11-22T07:50:30;102699.25;;;2.85;100.00
16120;BME280;12670;53.502;10.252;2023-11-22T07:53:34;102717.06;;;3.00;100.00
16120;BME280;12670;53.502;10.252;2023-11-22T07:56:37;102717.19;;;3.06;100.00
16120;BME280;12670;53.502;10.252;2023-11-22T07:59:41;102725.88;;;3.05;100.00
16120;BME280;12670;53.502;10.252;2023-11-22T08:02:43;102738.22;;;3.09;100.00
16120;BME280;12670;53.502;10.252;2023-11-22T08:05:46;102735.09;;;3.27;100.00
16120;BME280;12670;53.502;10.252;2023-11-22T08:08:50;102740.50;;;3.34;100.00
16120;BME280;12670;53.502;10.252;2023-11-22T08:11:52;102731.28;;;3.11;100.00
16120;BME280;12670;53.502;10.252;2023-11-22T08:14:56;102728.19;;;3.30;100.00
16120;BME280;12670;53.502;10.252;2023-11-22T08:17:59;102726.31;;;3.25;100.00
16120;BME280;12670;53.502;10.252;2023-11-22T08:21:03;102714.00;;;3.22;100.00
16120;BME280;12670;53.502;10.252;2023-11-22T08:24:07;102694.75;;;3.20;100.00
16120;BME280;12670;53.502;10.252;2023-11-22T08:27:10;102709.97;;;3.39;100.00
16120;BME280;12670;53.502;10.252;2023-11-22T08:30:15;102708.88;;;3.28;100.00
16120;BME280;12670;53.502;10.252;2023-11-22T08:33:19;102690.69;;;3.36;100.00
16120;BME280;12670;53.502;10.252;2023-11-22T08:36:23;102696.09;;;3.45;100.00
16120;BME280;12670;53.502;10.252;2023-11-22T08:39:26;102696.19;;;3.50;100.00
16120;BME280;12670;53.502;10.252;2023-11-22T08:42:29;102701.22;;;3.39;100.00
16120;BME280;12670;53.502;10.252;2023-11-22T08:45:33;102704.00;;;3.46;100.00
16120;BME280;12670;53.502;10.252;2023-11-22T08:48:36;102705.38;;;3.74;100.00
16120;BME280;12670;53.502;10.252;2023-11-22T08:51:41;102701.00;;;3.75;100.00
16120;BME280;12670;53.502;10.252;2023-11-22T08:54:44;102702.16;;;3.89;100.00
16120;BME280;12670;53.502;10.252;2023-11-22T08:57:47;102703.16;;;3.97;100.00
16120;BME280;12670;53.502;10.252;2023-11-22T09:00:53;102716.75;;;3.75;100.00
16120;BME280;12670;53.502;10.252;2023-11-22T09:03:59;102709.25;;;3.95;100.00
16120;BME280;12670;53.502;10.252;2023-11-22T09:07:02;102712.63;;;3.88;100.00
16120;BME280;12670;53.502;10.252;2023-11-22T09:10:05;102718.88;;;3.94;100.00
16120;BME280;12670;53.502;10.252;2023-11-22T09:13:12;102709.16;;;3.89;100.00
16120;BME280;12670;53.502;10.252;2023-11-22T09:16:19;102711.00;;;3.96;100.00
16120;BME280;12670;53.502;10.252;2023-11-22T09:19:24;102708.38;;;3.94;100.00
16120;BME280;12670;53.502;10.252;2023-11-22T09:22:26;102690.09;;;4.02;100.00
16120;BME280;12670;53.502;10.252;2023-11-22T09:25:29;102697.28;;;4.11;100.00
16120;BME280;12670;53.502;10.252;2023-11-22T09:28:32;102702.19;;;3.92;100.00
16120;BME280;12670;53.502;10.252;2023-11-22T09:31:36;102697.28;;;4.12;100.00
16120;BME280;12670;53.502;10.252;2023-11-22T09:34:40;102700.19;;;4.29;100.00
16120;BME280;12670;53.502;10.252;2023-11-22T09:37:45;102718.50;;;4.24;100.00
16120;BME280;12670;53.502;10.252;2023-11-22T09:40:49;102727.41;;;4.34;100.00
16120;BME280;12670;53.502;10.252;2023-11-22T09:43:52;102724.13;;;4.50;100.00
16120;BME280;12670;53.502;10.252;2023-11-22T09:46:57;102727.63;;;4.48;100.00
16120;BME280;12670;53.502;10.252;2023-11-22T09:50:01;102740.94;;;4.59;100.00
16120;BME280;12670;53.502;10.252;2023-11-22T09:53:11;102738.38;;;4.63;100.00
16120;BME280;12670;53.502;10.252;2023-11-22T09:56:14;102743.50;;;4.57;100.00
16120;BME280;12670;53.502;10.252;2023-11-22T09:59:18;102751.47;;;4.62;100.00
16120;BME280;12670;53.502;10.252;2023-11-22T10:02:26;102745.44;;;4.69;100.00
16120;BME280;12670;53.502;10.252;2023-11-22T10:05:30;102728.84;;;4.73;100.00
16120;BME280;12670;53.502;10.252;2023-11-22T10:08:33;102740.31;;;4.78;100.00
16120;BME280;12670;53.502;10.252;2023-11-22T10:11:37;102729.97;;;4.90;100.00
16120;BME280;12670;53.502;10.252;2023-11-22T10:14:44;102737.84;;;4.90;100.00
16120;BME280;12670;53.502;10.252;2023-11-22T10:17:55;102723.75;;;4.85;100.00
16120;BME280;12670;53.502;10.252;2023-11-22T10:21:02;102722.00;;;4.86;100.00
16120;BME280;12670;53.502;10.252;2023-11-22T10:24:05;102716.16;;;5.05;100.00
16120;BME280;12670;53.502;10.252;2023-11-22T10:27:11;102706.53;;;5.08;100.00
16120;BME280;12670;53.502;10.252;2023-11-22T10:30:14;102697.84;;;5.16;100.00
16120;BME280;12670;53.502;10.252;2023-11-22T10:33:19;102703.75;;;4.98;100.00
16120;BME280;12670;53.502;10.252;2023-11-22T10:36:24;102702.13;;;5.04;100.00
16120;BME280;12670;53.502;10.252;2023-11-22T10:39:27;102680.41;;;5.24;100.00
16120;BME280;12670;53.502;10.252;2023-11-22T10:42:30;102666.34;;;5.22;100.00
16120;BME280;12670;53.502;10.252;2023-11-22T10:45:33;102673.53;;;5.38;100.00
16120;BME280;12670;53.502;10.252;2023-11-22T10:48:39;102669.81;;;5.21;100.00
16120;BME280;12670;53.502;10.252;2023-11-22T10:51:44;102652.94;;;4.99;100.00
16120;BME280;12670;53.502;10.252;2023-11-22T10:54:49;102654.91;;;5.17;100.00
16120;BME280;12670;53.502;10.252;2023-11-22T10:57:56;102661.22;;;5.34;100.00
16120;BME280;12670;53.502;10.252;2023-11-22T11:01:05;102642.09;;;5.56;100.00
16120;BME280;12670;53.502;10.252;2023-11-22T11:04:16;102632.53;;;5.63;100.00
16120;BME280;12670;53.502;10.252;2023-11-22T11:07:23;102605.34;;;5.69;100.00
16120;BME280;12670;53.502;10.252;2023-11-22T11:10:28;102618.50;;;5.64;100.00
16120;BME280;12670;53.502;10.252;2023-11-22T11:13:30;102601.09;;;5.84;100.00
16120;BME280;12670;53.502;10.252;2023-11-22T11:16:35;102600.22;;;5.84;100.00
16120;BME280;12670;53.502;10.252;2023-11-22T11:19:41;102589.59;;;5.72;100.00
16120;BME280;12670;53.502;10.252;2023-11-22T11:22:46;102589.66;;;5.81;100.00
16120;BME280;12670;53.502;10.252;2023-11-22T11:25:50;102580.84;;;5.79;100.00
16120;BME280;12670;53.502;10.252;2023-11-22T11:28:52;102560.44;;;5.46;100.00
16120;BME280;12670;53.502;10.252;2023-11-22T11:31:56;102538.63;;;5.67;100.00
16120;BME280;12670;53.502;10.252;2023-11-22T11:35:01;102522.94;;;5.85;100.00
16120;BME280;12670;53.502;10.252;2023-11-22T11:38:08;102518.59;;;5.87;100.00
16120;BME280;12670;53.502;10.252;2023-11-22T11:41:11;102511.66;;;6.01;100.00
16120;BME280;12670;53.502;10.252;2023-11-22T11:44:14;102514.22;;;5.92;100.00
16120;BME280;12670;53.502;10.252;2023-11-22T11:47:18;102508.78;;;5.66;100.00
16120;BME280;12670;53.502;10.252;2023-11-22T11:50:22;102489.63;;;5.87;100.00
16120;BME280;12670;53.502;10.252;2023-11-22T11:53:25;102483.38;;;5.71;100.00
16120;BME280;12670;53.502;10.252;2023-11-22T11:56:28;102489.72;;;5.99;100.00
16120;BME280;12670;53.502;10.252;2023-11-22T11:59:31;102478.41;;;6.23;100.00
16120;BME280;12670;53.502;10.252;2023-11-22T12:02:34;102455.53;;;6.21;100.00
16120;BME280;12670;53.502;10.252;2023-11-22T12:05:38;102440.69;;;6.47;100.00
16120;BME280;12670;53.502;10.252;2023-11-22T12:08:41;102443.31;;;6.46;100.00
16120;BME280;12670;53.502;10.252;2023-11-22T12:11:44;102443.28;;;6.38;100.00
16120;BME280;12670;53.502;10.252;2023-11-22T12:14:48;102481.13;;;6.54;100.00
16120;BME280;12670;53.502;10.252;2023-11-22T12:17:52;102508.25;;;6.22;100.00
16120;BME280;12670;53.502;10.252;2023-11-22T12:21:00;102522.41;;;6.47;100.00
16120;BME280;12670;53.502;10.252;2023-11-22T12:24:04;102468.81;;;6.48;100.00
16120;BME280;12670;53.502;10.252;2023-11-22T12:27:09;102475.84;;;6.52;100.00
16120;BME280;12670;53.502;10.252;2023-11-22T12:30:27;102465.25;;;6.28;100.00
16120;BME280;12670;53.502;10.252;2023-11-22T12:33:31;102459.09;;;6.38;100.00
16120;BME280;12670;53.502;10.252;2023-11-22T12:36:35;102452.97;;;6.48;100.00
16120;BME280;12670;53.502;10.252;2023-11-22T12:39:39;102457.38;;;6.46;100.00
16120;BME280;12670;53.502;10.252;2023-11-22T12:42:47;102464.19;;;5.92;99.33
16120;BME280;12670;53.502;10.252;2023-11-22T12:45:58;102454.69;;;6.28;100.00
16120;BME280;12670;53.502;10.252;2023-11-22T12:49:05;102447.63;;;6.19;100.00
16120;BME280;12670;53.502;10.252;2023-11-22T12:52:09;102436.25;;;6.38;100.00
16120;BME280;12670;53.502;10.252;2023-11-22T12:55:11;102437.13;;;6.39;100.00
16120;BME280;12670;53.502;10.252;2023-11-22T12:58:15;102434.50;;;6.36;100.00
16120;BME280;12670;53.502;10.252;2023-11-22T13:01:17;102434.47;;;6.24;99.55
16120;BME280;12670;53.502;10.252;2023-11-22T13:04:23;102444.03;;;6.03;97.30
16120;BME280;12670;53.502;10.252;2023-11-22T13:07:27;102439.66;;;6.05;97.71
16120;BME280;12670;53.502;10.252;2023-11-22T13:10:30;102433.50;;;6.09;100.00
16120;BME280;12670;53.502;10.252;2023-11-22T13:13:33;102435.25;;;6.03;96.71
16120;BME280;12670;53.502;10.252;2023-11-22T13:16:36;102447.47;;;5.90;99.73
16120;BME280;12670;53.502;10.252;2023-11-22T13:19:40;102457.25;;;6.06;100.00
16120;BME280;12670;53.502;10.252;2023-11-22T13:22:46;102459.91;;;6.11;100.00
16120;BME280;12670;53.502;10.252;2023-11-22T13:25:49;102452.88;;;6.11;100.00
16120;BME280;12670;53.502;10.252;2023-11-22T13:28:52;102460.78;;;6.13;100.00
16120;BME280;12670;53.502;10.252;2023-11-22T13:31:56;102447.66;;;6.22;100.00
16120;BME280;12670;53.502;10.252;2023-11-22T13:34:59;102459.91;;;6.11;100.00
16120;BME280;12670;53.502;10.252;2023-11-22T13:38:04;102465.06;;;5.91;99.47
16120;BME280;12670;53.502;10.252;2023-11-22T13:41:12;102455.50;;;6.11;100.00
16120;BME280;12670;53.502;10.252;2023-11-22T13:44:15;102461.63;;;6.04;95.61
16120;BME280;12670;53.502;10.252;2023-11-22T13:47:20;102489.78;;;6.21;100.00
16120;BME280;12670;53.502;10.252;2023-11-22T13:50:22;102495.84;;;6.00;97.33
16120;BME280;12670;53.502;10.252;2023-11-22T13:53:29;102494.06;;;5.96;92.99
16120;BME280;12670;53.502;10.252;2023-11-22T13:56:35;102484.34;;;5.88;99.15
16120;BME280;12670;53.502;10.252;2023-11-22T13:59:38;102484.34;;;5.87;91.58
16120;BME280;12670;53.502;10.252;2023-11-22T14:02:41;102479.13;;;5.96;100.00
16120;BME280;12670;53.502;10.252;2023-11-22T14:05:44;102468.53;;;5.87;93.38
16120;BME280;12670;53.502;10.252;2023-11-22T14:08:48;102460.66;;;5.92;96.52
16120;BME280;12670;53.502;10.252;2023-11-22T14:11:51;102438.81;;;6.12;94.25
16120;BME280;12670;53.502;10.252;2023-11-22T14:14:54;102435.19;;;5.92;92.13
16120;BME280;12670;53.502;10.252;2023-11-22T14:17:57;102434.22;;;5.78;91.00
16120;BME280;12670;53.502;10.252;2023-11-22T14:21:00;102429.88;;;5.86;93.96
16120;BME280;12670;53.502;10.252;2023-11-22T14:24:07;102428.09;;;5.79;94.72
16120;BME280;12670;53.502;10.252;2023-11-22T14:27:10;102427.31;;;5.94;97.03
16120;BME280;12670;53.502;10.252;2023-11-22T14:30:13;102424.75;;;6.15;94.12
16120;BME280;12670;53.502;10.252;2023-11-22T14:33:16;102431.72;;;6.04;96.75
16120;BME280;12670;53.502;10.252;2023-11-22T14:36:19;102421.19;;;6.02;98.41
16120;BME280;12670;53.502;10.252;2023-11-22T14:39:23;102427.97;;;5.54;91.77
16120;BME280;12670;53.502;10.252;2023-11-22T14:42:26;102418.19;;;5.38;88.27
16120;BME280;12670;53.502;10.252;2023-11-22T14:45:29;102413.84;;;5.40;90.91
16120;BME280;12670;53.502;10.252;2023-11-22T14:48:32;102393.72;;;5.53;90.36
16120;BME280;12670;53.502;10.252;2023-11-22T14:51:35;102380.59;;;5.57;93.72
16120;BME280;12670;53.502;10.252;2023-11-22T14:54:39;102370.13;;;5.73;93.11
16120;BME280;12670;53.502;10.252;2023-11-22T14:57:42;102368.25;;;5.50;87.73
16120;BME280;12670;53.502;10.252;2023-11-22T15:00:44;102370.09;;;5.67;97.41
16120;BME280;12670;53.502;10.252;2023-11-22T15:03:47;102355.16;;;5.67;97.74
16120;BME280;12670;53.502;10.252;2023-11-22T15:06:50;102346.41;;;5.74;98.85
16120;BME280;12670;53.502;10.252;2023-11-22T15:09:54;102333.25;;;5.80;95.64
16120;BME280;12670;53.502;10.252;2023-11-22T15:12:57;102321.00;;;5.81;98.14
16120;BME280;12670;53.502;10.252;2023-11-22T15:16:00;102322.75;;;5.83;98.34
16120;BME280;12670;53.502;10.252;2023-11-22T15:19:03;102293.72;;;5.65;97.01
16120;BME280;12670;53.502;10.252;2023-11-22T15:22:07;102284.13;;;5.75;97.54
16120;BME280;12670;53.502;10.252;2023-11-22T15:25:11;102291.09;;;5.57;97.87
16120;BME280;12670;53.502;10.252;2023-11-22T15:28:17;102280.59;;;5.76;100.00
16120;BME280;12670;53.502;10.252;2023-11-22T15:31:24;102294.53;;;5.40;99.71
16120;BME280;12670;53.502;10.252;2023-11-22T15:34:26;102302.97;;;4.82;100.00
16120;BME280;12670;53.502;10.252;2023-11-22T15:37:29;102298.63;;;4.90;100.00
16120;BME280;12670;53.502;10.252;2023-11-22T15:40:33;102307.53;;;5.14;100.00
16120;BME280;12670;53.502;10.252;2023-11-22T15:43:36;102292.31;;;4.67;100.00
16120;BME280;12670;53.502;10.252;2023-11-22T15:46:39;102295.03;;;4.79;100.00
16120;BME280;12670;53.502;10.252;2023-11-22T15:49:42;102289.91;;;5.02;100.00